sensor_id;sensor_type;location;lat;lon;timestamp;temperature;humidity
27890;DHT22;15238;49.082;9.102;2023-11-22T00:00:33;5.60;99.90
27890;DHT22;15238;49.082;9.102;2023-11-22T00:02:33;5.60;99.90
27890;DHT22;15238;49.082;9.102;2023-11-22T00:04:34;5.50;99.90
27890;DHT22;15238;49.082;9.102;2023-11-22T00:06:35;5.50;99.90
27890;DHT22;15238;49.082;9.102;2023-11-22T00:08:35;5.50;99.90
27890;DHT22;15238;49.082;9.102;2023-11-22T00:10:36;5.50;99.90
27890;DHT22;15238;49.082;9.102;2023-11-22T00:12:36;5.50;99.90
27890;DHT22;15238;49.082;9.102;2023-11-22T00:14:38;5.50;99.90
27890;DHT22;15238;49.082;9.102;2023-11-22T00:16:39;5.50;99.90
27890;DHT22;15238;49.082;9.102;2023-11-22T00:18:40;5.50;99.90
27890;DHT22;15238;49.082;9.102;2023-11-22T00:20:41;5.50;99.90
27890;DHT22;15238;49.082;9.102;2023-11-22T00:22:41;5.50;99.90
27890;DHT22;15238;49.082;9.102;2023-11-22T00:24:42;5.40;99.90
27890;DHT22;15238;49.082;9.102;2023-11-22T00:26:46;5.40;99.90
27890;DHT22;15238;49.082;9.102;2023-11-22T00:28:46;5.30;99.90
27890;DHT22;15238;49.082;9.102;2023-11-22T00:30:47;5.30;99.90
27890;DHT22;15238;49.082;9.102;2023-11-22T00:32:47;5.30;99.90
27890;DHT22;15238;49.082;9.102;2023-11-22T00:34:48;5.30;99.90
27890;DHT22;15238;49.082;9.102;2023-11-22T00:36:48;5.30;99.90
27890;DHT22;15238;49.082;9.102;2023-11-22T00:38:49;5.30;99.90
27890;DHT22;15238;49.082;9.102;2023-11-22T00:40:49;5.30;99.90
27890;DHT22;15238;49.082;9.102;2023-11-22T00:42:50;5.30;99.90
27890;DHT22;15238;49.082;9.102;2023-11-22T00:44:51;5.30;99.90
27890;DHT22;15238;49.082;9.102;2023-11-22T00:46:51;5.30;99.90
27890;DHT22;15238;49.082;9.102;2023-11-22T00:48:52;5.30;99.90
27890;DHT22;15238;49.082;9.102;2023-11-22T00:50:52;5.30;99.90
27890;DHT22;15238;49.082;9.102;2023-11-22T00:52:53;5.30;99.90
27890;DHT22;15238;49.082;9.102;2023-11-22T00:54:54;5.20;99.90
27890;DHT22;15238;49.082;9.102;2023-11-22T00:56:54;5.20;99.90
27890;DHT22;15238;49.082;9.102;2023-11-22T00:58:55;5.20;99.90
27890;DHT22;15238;49.082;9.102;2023-11-22T01:00:57;5.10;99.90
27890;DHT22;15238;49.082;9.102;2023-11-22T01:02:58;5.10;99.90
27890;DHT22;15238;49.082;9.102;2023-11-22T01:04:58;5.10;99.90
27890;DHT22;15238;49.082;9.102;2023-11-22T01:06:58;5.10;99.90
27890;DHT22;15238;49.082;9.102;2023-11-22T01:08:59;5.10;99.90
27890;DHT22;15238;49.082;9.102;2023-11-22T01:11:00;5.10;99.90
27890;DHT22;15238;49.082;9.102;2023-11-22T01:13:00;5.10;99.90
27890;DHT22;15238;49.082;9.102;2023-11-22T01:15:01;5.10;99.90
27890;DHT22;15238;49.082;9.102;2023-11-22T01:17:01;5.00;99.90
27890;DHT22;15238;49.082;9.102;2023-11-22T01:19:02;5.00;99.90
27890;DHT22;15238;49.082;9.102;2023-11-22T01:21:02;5.00;99.90
27890;DHT22;15238;49.082;9.102;2023-11-22T01:23:06;5.00;99.90
27890;DHT22;15238;49.082;9.102;2023-11-22T01:25:06;5.00;99.90
27890;DHT22;15238;49.082;9.102;2023-11-22T01:27:07;5.00;99.90
27890;DHT22;15238;49.082;9.102;2023-11-22T01:29:07;5.00;99.90
27890;DHT22;15238;49.082;9.102;2023-11-22T01:31:08;5.00;99.90
27890;DHT22;15238;49.082;9.102;2023-11-22T01:33:08;4.90;99.90
27890;DHT22;15238;49.082;9.102;2023-11-22T01:35:09;4.90;99.90
27890;DHT22;15238;49.082;9.102;2023-11-22T01:37:10;4.90;99.90
27890;DHT22;15238;49.082;9.102;2023-11-22T01:39:11;4.90;99.90
27890;DHT22;15238;49.082;9.102;2023-11-22T01:41:15;4.90;99.90
27890;DHT22;15238;49.082;9.102;2023-11-22T01:43:19;4.90;99.90
27890;DHT22;15238;49.082;9.102;2023-11-22T01:45:20;4.80;99.90
27890;DHT22;15238;49.082;9.102;2023-11-22T01:47:21;4.80;99.90
27890;DHT22;15238;49.082;9.102;2023-11-22T01:49:22;4.80;99.90
27890;DHT22;15238;49.082;9.102;2023-11-22T01:51:24;4.80;99.90
27890;DHT22;15238;49.082;9.102;2023-11-22T01:53:25;4.80;99.90
27890;DHT22;15238;49.082;9.102;2023-11-22T01:55:26;4.80;99.90
27890;DHT22;15238;49.082;9.102;2023-11-22T01:57:27;4.80;99.90
27890;DHT22;15238;49.082;9.102;2023-11-22T01:59:29;4.80;99.90
27890;DHT22;15238;49.082;9.102;2023-11-22T02:01:31;4.80;99.90
27890;DHT22;15238;49.082;9.102;2023-11-22T02:03:31;4.70;99.90
27890;DHT22;15238;49.082;9.102;2023-11-22T02:05:32;4.70;99.90
27890;DHT22;15238;49.082;9.102;2023-11-22T02:07:33;4.70;99.90
27890;DHT22;15238;49.082;9.102;2023-11-22T02:09:34;4.60;99.90
27890;DHT22;15238;49.082;9.102;2023-11-22T02:11:34;4.60;99.90
27890;DHT22;15238;49.082;9.102;2023-11-22T02:13:35;4.60;99.90
27890;DHT22;15238;49.082;9.102;2023-11-22T02:15:37;4.50;99.90
27890;DHT22;15238;49.082;9.102;2023-11-22T02:17:38;4.50;99.90
27890;DHT22;15238;49.082;9.102;2023-11-22T02:19:39;4.50;99.90
27890;DHT22;15238;49.082;9.102;2023-11-22T02:21:40;4.50;99.90
27890;DHT22;15238;49.082;9.102;2023-11-22T02:23:41;4.40;99.90
27890;DHT22;15238;49.082;9.102;2023-11-22T02:25:42;4.30;99.90
27890;DHT22;15238;49.082;9.102;2023-11-22T02:27:43;4.30;99.90
27890;DHT22;15238;49.082;9.102;2023-11-22T02:29:43;4.20;99.90
27890;DHT22;15238;49.082;9.102;2023-11-22T02:31:44;4.20;99.90
27890;DHT22;15238;49.082;9.102;2023-11-22T02:33:44;4.20;99.90
27890;DHT22;15238;49.082;9.102;2023-11-22T02:35:45;4.20;99.90
27890;DHT22;15238;49.082;9.102;2023-11-22T02:37:45;4.20;99.90
27890;DHT22;15238;49.082;9.102;2023-11-22T02:40:16;4.20;99.90
27890;DHT22;15238;49.082;9.102;2023-11-22T02:42:18;4.20;99.90
27890;DHT22;15238;49.082;9.102;2023-11-22T02:44:18;4.10;99.90
27890;DHT22;15238;49.082;9.102;2023-11-22T02:46:19;4.00;99.90
27890;DHT22;15238;49.082;9.102;2023-11-22T02:48:19;4.00;99.90
27890;DHT22;15238;49.082;9.102;2023-11-22T02:50:20;4.00;99.90
27890;DHT22;15238;49.082;9.102;2023-11-22T02:52:21;3.90;99.90
27890;DHT22;15238;49.082;9.102;2023-11-22T02:54:22;3.90;99.90
27890;DHT22;15238;49.082;9.102;2023-11-22T02:56:22;3.90;99.90
27890;DHT22;15238;49.082;9.102;2023-11-22T02:58:23;3.80;99.90
27890;DHT22;15238;49.082;9.102;2023-11-22T03:00:23;3.80;99.90
27890;DHT22;15238;49.082;9.102;2023-11-22T03:02:25;3.80;99.90
27890;DHT22;15238;49.082;9.102;2023-11-22T03:04:26;3.70;99.90
27890;DHT22;15238;49.082;9.102;2023-11-22T03:06:26;3.60;99.90
27890;DHT22;15238;49.082;9.102;2023-11-22T03:08:28;3.70;99.90
27890;DHT22;15238;49.082;9.102;2023-11-22T03:10:28;3.60;99.90
27890;DHT22;15238;49.082;9.102;2023-11-22T03:12:30;3.50;99.90
27890;DHT22;15238;49.082;9.102;2023-11-22T03:14:31;3.50;99.90
27890;DHT22;15238;49.082;9.102;2023-11-22T03:16:31;3.50;99.90
27890;DHT22;15238;49.082;9.102;2023-11-22T03:18:32;3.50;99.90
27890;DHT22;15238;49.082;9.102;2023-11-22T03:20:33;3.40;99.90
27890;DHT22;15238;49.082;9.102;2023-11-22T03:22:33;3.30;99.90
27890;DHT22;15238;49.082;9.102;2023-11-22T03:24:35;3.30;99.90
27890;DHT22;15238;49.082;9.102;2023-11-22T03:26:37;3.30;99.90
27890;DHT22;15238;49.082;9.102;2023-11-22T03:28:37;3.40;99.90
27890;DHT22;15238;49.082;9.102;2023-11-22T03:30:38;3.30;99.90
27890;DHT22;15238;49.082;9.102;2023-11-22T03:32:41;3.40;99.90
27890;DHT22;15238;49.082;9.102;2023-11-22T03:34:41;3.30;99.90
27890;DHT22;15238;49.082;9.102;2023-11-22T03:36:42;3.30;99.90
27890;DHT22;15238;49.082;9.102;2023-11-22T03:38:43;3.30;99.90
27890;DHT22;15238;49.082;9.102;2023-11-22T03:40:43;3.30;99.90
27890;DHT22;15238;49.082;9.102;2023-11-22T03:42:45;3.30;99.90
27890;DHT22;15238;49.082;9.102;2023-11-22T03:44:45;3.30;99.90
27890;DHT22;15238;49.082;9.102;2023-11-22T03:46:46;3.30;99.90
27890;DHT22;15238;49.082;9.102;2023-11-22T03:48:46;3.30;99.90
27890;DHT22;15238;49.082;9.102;2023-11-22T03:50:47;3.40;99.90
27890;DHT22;15238;49.082;9.102;2023-11-22T03:52:47;3.30;99.90
27890;DHT22;15238;49.082;9.102;2023-11-22T03:54:48;3.30;99.90
27890;DHT22;15238;49.082;9.102;2023-11-22T03:56:48;3.30;99.90
27890;DHT22;15238;49.082;9.102;2023-11-22T03:58:49;3.30;99.90
27890;DHT22;15238;49.082;9.102;2023-11-22T04:00:50;3.40;99.90
27890;DHT22;15238;49.082;9.102;2023-11-22T04:02:52;3.40;99.90
27890;DHT22;15238;49.082;9.102;2023-11-22T04:04:54;3.40;99.90
27890;DHT22;15238;49.082;9.102;2023-11-22T04:06:54;3.40;99.90
27890;DHT22;15238;49.082;9.102;2023-11-22T04:08:55;3.40;99.90
27890;DHT22;15238;49.082;9.102;2023-11-22T04:10:55;3.50;99.90
27890;DHT22;15238;49.082;9.102;2023-11-22T04:12:57;3.50;99.90
27890;DHT22;15238;49.082;9.102;2023-11-22T04:14:57;3.50;99.90
27890;DHT22;15238;49.082;9.102;2023-11-22T04:16:58;3.50;99.90
27890;DHT22;15238;49.082;9.102;2023-11-22T04:18:58;3.50;99.90
27890;DHT22;15238;49.082;9.102;2023-11-22T04:20:59;3.50;99.90
27890;DHT22;15238;49.082;9.102;2023-11-22T04:23:01;3.50;99.90
27890;DHT22;15238;49.082;9.102;2023-11-22T04:25:02;3.60;99.90
27890;DHT22;15238;49.082;9.102;2023-11-22T04:27:02;3.60;99.90
27890;DHT22;15238;49.082;9.102;2023-11-22T04:29:03;3.60;99.90
27890;DHT22;15238;49.082;9.102;2023-11-22T04:31:04;3.60;99.90
27890;DHT22;15238;49.082;9.102;2023-11-22T04:33:05;3.60;99.90
27890;DHT22;15238;49.082;9.102;2023-11-22T04:35:06;3.60;99.90
27890;DHT22;15238;49.082;9.102;2023-11-22T04:37:07;3.60;99.90
27890;DHT22;15238;49.082;9.102;2023-11-22T04:39:07;3.60;99.90
27890;DHT22;15238;49.082;9.102;2023-11-22T04:41:08;3.60;99.90
27890;DHT22;15238;49.082;9.102;2023-11-22T04:43:09;3.60;99.90
27890;DHT22;15238;49.082;9.102;2023-11-22T04:45:09;3.70;99.90
27890;DHT22;15238;49.082;9.102;2023-11-22T04:47:10;3.70;99.90
27890;DHT22;15238;49.082;9.102;2023-11-22T04:49:10;3.70;99.90
27890;DHT22;15238;49.082;9.102;2023-11-22T04:51:11;3.70;99.90
27890;DHT22;15238;49.082;9.102;2023-11-22T04:53:11;3.70;99.90
27890;DHT22;15238;49.082;9.102;2023-11-22T04:55:12;3.70;99.90
27890;DHT22;15238;49.082;9.102;2023-11-22T04:57:12;3.80;99.90
27890;DHT22;15238;49.082;9.102;2023-11-22T04:59:13;3.70;99.90
27890;DHT22;15238;49.082;9.102;2023-11-22T05:01:13;3.70;99.90
27890;DHT22;15238;49.082;9.102;2023-11-22T05:03:14;3.70;99.90
27890;DHT22;15238;49.082;9.102;2023-11-22T05:05:15;3.70;99.90
27890;DHT22;15238;49.082;9.102;2023-11-22T05:07:15;3.70;99.90
27890;DHT22;15238;49.082;9.102;2023-11-22T05:09:16;3.70;99.90
27890;DHT22;15238;49.082;9.102;2023-11-22T05:11:18;3.80;99.90
27890;DHT22;15238;49.082;9.102;2023-11-22T05:13:18;3.80;99.90
27890;DHT22;15238;49.082;9.102;2023-11-22T05:15:19;3.80;99.90
27890;DHT22;15238;49.082;9.102;2023-11-22T05:17:19;3.80;99.90
27890;DHT22;15238;49.082;9.102;2023-11-22T05:19:20;3.80;99.90
27890;DHT22;15238;49.082;9.102;2023-11-22T05:21:21;3.80;99.90
27890;DHT22;15238;49.082;9.102;2023-11-22T05:23:22;3.80;99.90
27890;DHT22;15238;49.082;9.102;2023-11-22T05:25:23;3.80;99.90
27890;DHT22;15238;49.082;9.102;2023-11-22T05:27:24;3.80;99.90
27890;DHT22;15238;49.082;9.102;2023-11-22T05:29:25;3.70;99.90
27890;DHT22;15238;49.082;9.102;2023-11-22T05:31:25;3.70;99.90
27890;DHT22;15238;49.082;9.102;2023-11-22T05:33:26;3.60;99.90
27890;DHT22;15238;49.082;9.102;2023-11-22T05:35:27;3.70;99.90
27890;DHT22;15238;49.082;9.102;2023-11-22T05:37:27;3.60;99.90
27890;DHT22;15238;49.082;9.102;2023-11-22T05:39:29;3.60;99.90
27890;DHT22;15238;49.082;9.102;2023-11-22T05:41:29;3.60;99.90
27890;DHT22;15238;49.082;9.102;2023-11-22T05:43:30;3.60;99.90
27890;DHT22;15238;49.082;9.102;2023-11-22T05:45:30;3.50;99.90
27890;DHT22;15238;49.082;9.102;2023-11-22T05:47:31;3.60;99.90
27890;DHT22;15238;49.082;9.102;2023-11-22T05:49:31;3.50;99.90
27890;DHT22;15238;49.082;9.102;2023-11-22T05:51:32;3.50;99.90
27890;DHT22;15238;49.082;9.102;2023-11-22T05:53:34;3.50;99.90
27890;DHT22;15238;49.082;9.102;2023-11-22T05:55:34;3.30;99.90
27890;DHT22;15238;49.082;9.102;2023-11-22T05:57:35;3.30;99.90
27890;DHT22;15238;49.082;9.102;2023-11-22T05:59:36;3.30;99.90
27890;DHT22;15238;49.082;9.102;2023-11-22T06:01:36;3.30;99.90
27890;DHT22;15238;49.082;9.102;2023-11-22T06:03:37;3.30;99.90
27890;DHT22;15238;49.082;9.102;2023-11-22T06:05:39;3.30;99.90
27890;DHT22;15238;49.082;9.102;2023-11-22T06:07:40;3.20;99.90
27890;DHT22;15238;49.082;9.102;2023-11-22T06:09:42;3.10;99.90
27890;DHT22;15238;49.082;9.102;2023-11-22T06:11:42;3.10;99.90
27890;DHT22;15238;49.082;9.102;2023-11-22T06:13:43;3.10;99.90
27890;DHT22;15238;49.082;9.102;2023-11-22T06:15:43;3.00;99.90
27890;DHT22;15238;49.082;9.102;2023-11-22T06:17:44;3.00;99.90
27890;DHT22;15238;49.082;9.102;2023-11-22T06:19:44;2.90;99.90
27890;DHT22;15238;49.082;9.102;2023-11-22T06:21:45;2.90;99.90
27890;DHT22;15238;49.082;9.102;2023-11-22T06:23:46;2.90;99.90
27890;DHT22;15238;49.082;9.102;2023-11-22T06:25:46;2.80;99.90
27890;DHT22;15238;49.082;9.102;2023-11-22T06:27:47;2.80;99.90
27890;DHT22;15238;49.082;9.102;2023-11-22T06:29:47;2.70;99.90
27890;DHT22;15238;49.082;9.102;2023-11-22T06:31:47;2.70;99.90
27890;DHT22;15238;49.082;9.102;2023-11-22T06:33:48;2.70;99.90
27890;DHT22;15238;49.082;9.102;2023-11-22T06:35:48;2.60;99.90
27890;DHT22;15238;49.082;9.102;2023-11-22T06:37:49;2.60;99.90
27890;DHT22;15238;49.082;9.102;2023-11-22T06:39:49;2.60;99.90
27890;DHT22;15238;49.082;9.102;2023-11-22T06:41:51;2.50;99.90
27890;DHT22;15238;49.082;9.102;2023-11-22T06:43:51;2.50;99.90
27890;DHT22;15238;49.082;9.102;2023-11-22T06:45:53;2.50;99.90
27890;DHT22;15238;49.082;9.102;2023-11-22T06:47:53;2.50;99.90
27890;DHT22;15238;49.082;9.102;2023-11-22T06:49:54;2.50;99.90
27890;DHT22;15238;49.082;9.102;2023-11-22T06:51:54;2.50;99.90
27890;DHT22;15238;49.082;9.102;2023-11-22T06:53:55;2.40;99.90
27890;DHT22;15238;49.082;9.102;2023-11-22T06:55:55;2.40;99.90
27890;DHT22;15238;49.082;9.102;2023-11-22T06:57:56;2.40;99.90
27890;DHT22;15238;49.082;9.102;2023-11-22T06:59:57;2.40;99.90
27890;DHT22;15238;49.082;9.102;2023-11-22T07:01:57;2.40;99.90
27890;DHT22;15238;49.082;9.102;2023-11-22T07:03:58;2.40;99.90
27890;DHT22;15238;49.082;9.102;2023-11-22T07:05:59;2.40;99.90
27890;DHT22;15238;49.082;9.102;2023-11-22T07:07:59;2.40;99.90
27890;DHT22;15238;49.082;9.102;2023-11-22T07:10:00;2.30;99.90
27890;DHT22;15238;49.082;9.102;2023-11-22T07:12:00;2.40;99.90
27890;DHT22;15238;49.082;9.102;2023-11-22T07:14:01;2.30;99.90
27890;DHT22;15238;49.082;9.102;2023-11-22T07:16:05;2.40;99.90
27890;DHT22;15238;49.082;9.102;2023-11-22T07:18:07;2.30;99.90
27890;DHT22;15238;49.082;9.102;2023-11-22T07:20:10;2.20;99.90
27890;DHT22;15238;49.082;9.102;2023-11-22T07:22:16;2.20;99.90
27890;DHT22;15238;49.082;9.102;2023-11-22T07:24:16;2.20;99.90
27890;DHT22;15238;49.082;9.102;2023-11-22T07:26:18;2.20;99.90
27890;DHT22;15238;49.082;9.102;2023-11-22T07:28:19;2.20;99.90
27890;DHT22;15238;49.082;9.102;2023-11-22T07:30:20;2.20;99.90
27890;DHT22;15238;49.082;9.102;2023-11-22T07:32:23;2.30;99.90
27890;DHT22;15238;49.082;9.102;2023-11-22T07:34:23;2.20;99.90
27890;DHT22;15238;49.082;9.102;2023-11-22T07:36:24;2.20;99.90
27890;DHT22;15238;49.082;9.102;2023-11-22T07:38:25;2.10;99.90
27890;DHT22;15238;49.082;9.102;2023-11-22T07:40:25;2.10;99.90
27890;DHT22;15238;49.082;9.102;2023-11-22T07:42:26;2.10;99.90
27890;DHT22;15238;49.082;9.102;2023-11-22T07:44:27;2.10;99.90
27890;DHT22;15238;49.082;9.102;2023-11-22T07:46:27;2.10;99.90
27890;DHT22;15238;49.082;9.102;2023-11-22T07:48:28;2.10;99.90
27890;DHT22;15238;49.082;9.102;2023-11-22T07:50:28;2.10;99.90
27890;DHT22;15238;49.082;9.102;2023-11-22T07:52:29;2.10;99.90
27890;DHT22;15238;49.082;9.102;2023-11-22T07:54:30;2.00;99.90
27890;DHT22;15238;49.082;9.102;2023-11-22T07:56:31;2.10;99.90
27890;DHT22;15238;49.082;9.102;2023-11-22T07:58:33;2.10;99.90
27890;DHT22;15238;49.082;9.102;2023-11-22T08:00:34;2.10;99.90
27890;DHT22;15238;49.082;9.102;2023-11-22T08:02:35;2.10;99.90
27890;DHT22;15238;49.082;9.102;2023-11-22T08:04:38;2.00;99.90
27890;DHT22;15238;49.082;9.102;2023-11-22T08:06:40;2.00;99.90
27890;DHT22;15238;49.082;9.102;2023-11-22T08:08:41;2.00;99.90
27890;DHT22;15238;49.082;9.102;2023-11-22T08:10:41;2.10;99.90
27890;DHT22;15238;49.082;9.102;2023-11-22T08:12:43;2.10;99.90
27890;DHT22;15238;49.082;9.102;2023-11-22T08:14:45;2.10;99.90
27890;DHT22;15238;49.082;9.102;2023-11-22T08:16:46;2.10;99.90
27890;DHT22;15238;49.082;9.102;2023-11-22T08:18:46;2.10;99.90
27890;DHT22;15238;49.082;9.102;2023-11-22T08:20:48;2.10;99.90
27890;DHT22;15238;49.082;9.102;2023-11-22T08:22:48;2.10;99.90
27890;DHT22;15238;49.082;9.102;2023-11-22T08:24:51;2.10;99.90
27890;DHT22;15238;49.082;9.102;2023-11-22T08:26:52;2.10;99.90
27890;DHT22;15238;49.082;9.102;2023-11-22T08:28:53;2.00;99.90
27890;DHT22;15238;49.082;9.102;2023-11-22T08:30:54;2.10;99.90
27890;DHT22;15238;49.082;9.102;2023-11-22T08:32:55;2.10;99.90
27890;DHT22;15238;49.082;9.102;2023-11-22T08:34:56;2.20;99.90
27890;DHT22;15238;49.082;9.102;2023-11-22T08:36:57;2.20;99.90
27890;DHT22;15238;49.082;9.102;2023-11-22T08:38:57;2.20;99.90
27890;DHT22;15238;49.082;9.102;2023-11-22T08:41:07;2.10;99.90
27890;DHT22;15238;49.082;9.102;2023-11-22T08:43:07;2.10;99.90
27890;DHT22;15238;49.082;9.102;2023-11-22T08:45:08;2.10;99.90
27890;DHT22;15238;49.082;9.102;2023-11-22T08:47:09;2.10;99.90
27890;DHT22;15238;49.082;9.102;2023-11-22T08:49:09;2.10;99.90
27890;DHT22;15238;49.082;9.102;2023-11-22T08:51:11;2.20;99.90
27890;DHT22;15238;49.082;9.102;2023-11-22T08:53:13;2.20;99.90
27890;DHT22;15238;49.082;9.102;2023-11-22T08:55:13;2.30;99.90
27890;DHT22;15238;49.082;9.102;2023-11-22T08:57:14;2.30;99.90
27890;DHT22;15238;49.082;9.102;2023-11-22T08:59:15;2.30;99.90
27890;DHT22;15238;49.082;9.102;2023-11-22T09:01:17;2.30;99.90
27890;DHT22;15238;49.082;9.102;2023-11-22T09:03:19;2.40;99.90
27890;DHT22;15238;49.082;9.102;2023-11-22T09:05:19;2.40;99.90
27890;DHT22;15238;49.082;9.102;2023-11-22T09:07:21;2.50;99.90
27890;DHT22;15238;49.082;9.102;2023-11-22T09:09:22;2.50;99.90
27890;DHT22;15238;49.082;9.102;2023-11-22T09:11:31;2.50;99.90
27890;DHT22;15238;49.082;9.102;2023-11-22T09:13:34;2.60;99.90
27890;DHT22;15238;49.082;9.102;2023-11-22T09:15:35;2.70;99.90
27890;DHT22;15238;49.082;9.102;2023-11-22T09:17:37;2.70;99.90
27890;DHT22;15238;49.082;9.102;2023-11-22T09:19:43;2.80;99.90
27890;DHT22;15238;49.082;9.102;2023-11-22T09:21:43;2.80;99.90
27890;DHT22;15238;49.082;9.102;2023-11-22T09:23:44;2.90;99.90
27890;DHT22;15238;49.082;9.102;2023-11-22T09:25:45;2.90;99.90
27890;DHT22;15238;49.082;9.102;2023-11-22T09:27:47;2.80;99.90
27890;DHT22;15238;49.082;9.102;2023-11-22T09:29:48;2.90;99.90
27890;DHT22;15238;49.082;9.102;2023-11-22T09:31:50;3.00;99.90
27890;DHT22;15238;49.082;9.102;2023-11-22T09:33:52;3.00;99.90
27890;DHT22;15238;49.082;9.102;2023-11-22T09:35:52;3.10;99.90
27890;DHT22;15238;49.082;9.102;2023-11-22T09:37:53;3.20;99.90
27890;DHT22;15238;49.082;9.102;2023-11-22T09:39:54;3.10;99.90
27890;DHT22;15238;49.082;9.102;2023-11-22T09:41:55;3.20;99.90
27890;DHT22;15238;49.082;9.102;2023-11-22T09:43:55;3.10;99.90
27890;DHT22;15238;49.082;9.102;2023-11-22T09:45:56;3.10;99.90
27890;DHT22;15238;49.082;9.102;2023-11-22T09:47:57;3.10;99.90
27890;DHT22;15238;49.082;9.102;2023-11-22T09:50:01;3.10;99.90
27890;DHT22;15238;49.082;9.102;2023-11-22T09:52:06;3.20;99.90
27890;DHT22;15238;49.082;9.102;2023-11-22T09:54:09;3.10;99.90
27890;DHT22;15238;49.082;9.102;2023-11-22T09:56:15;3.10;99.90
27890;DHT22;15238;49.082;9.102;2023-11-22T09:58:16;3.20;99.90
27890;DHT22;15238;49.082;9.102;2023-11-22T10:00:19;3.20;99.90
27890;DHT22;15238;49.082;9.102;2023-11-22T10:02:21;3.20;99.90
27890;DHT22;15238;49.082;9.102;2023-11-22T10:04:27;3.40;99.90
27890;DHT22;15238;49.082;9.102;2023-11-22T10:06:29;3.30;99.90
27890;DHT22;15238;49.082;9.102;2023-11-22T10:08:33;3.30;99.90
27890;DHT22;15238;49.082;9.102;2023-11-22T10:10:38;3.20;99.90
27890;DHT22;15238;49.082;9.102;2023-11-22T10:12:43;3.10;99.90
27890;DHT22;15238;49.082;9.102;2023-11-22T10:14:43;3.30;99.90
27890;DHT22;15238;49.082;9.102;2023-11-22T10:16:57;3.30;99.90
27890;DHT22;15238;49.082;9.102;2023-11-22T10:18:58;3.40;99.90
27890;DHT22;15238;49.082;9.102;2023-11-22T10:20:59;3.40;99.90
27890;DHT22;15238;49.082;9.102;2023-11-22T10:23:03;3.50;99.90
27890;DHT22;15238;49.082;9.102;2023-11-22T10:25:10;3.50;99.90
27890;DHT22;15238;49.082;9.102;2023-11-22T10:27:11;3.50;99.90
27890;DHT22;15238;49.082;9.102;2023-11-22T10:29:12;3.50;99.90
27890;DHT22;15238;49.082;9.102;2023-11-22T10:31:13;3.50;99.90
27890;DHT22;15238;49.082;9.102;2023-11-22T10:33:14;3.60;99.90
27890;DHT22;15238;49.082;9.102;2023-11-22T10:35:15;3.60;99.90
27890;DHT22;15238;49.082;9.102;2023-11-22T10:37:16;3.70;99.90
27890;DHT22;15238;49.082;9.102;2023-11-22T10:39:19;3.60;99.90
27890;DHT22;15238;49.082;9.102;2023-11-22T10:41:20;3.70;99.90
27890;DHT22;15238;49.082;9.102;2023-11-22T10:43:22;3.70;99.90
27890;DHT22;15238;49.082;9.102;2023-11-22T10:45:29;3.70;99.90
27890;DHT22;15238;49.082;9.102;2023-11-22T10:47:30;3.60;99.90
27890;DHT22;15238;49.082;9.102;2023-11-22T10:49:32;3.70;99.90
27890;DHT22;15238;49.082;9.102;2023-11-22T10:51:33;3.60;99.90
27890;DHT22;15238;49.082;9.102;2023-11-22T10:53:35;3.60;99.90
27890;DHT22;15238;49.082;9.102;2023-11-22T10:55:38;3.70;99.90
27890;DHT22;15238;49.082;9.102;2023-11-22T10:57:46;3.80;99.90
27890;DHT22;15238;49.082;9.102;2023-11-22T10:59:54;3.80;99.90
27890;DHT22;15238;49.082;9.102;2023-11-22T11:01:56;3.80;99.90
27890;DHT22;15238;49.082;9.102;2023-11-22T11:04:02;3.70;99.90
27890;DHT22;15238;49.082;9.102;2023-11-22T11:06:10;3.60;99.90
27890;DHT22;15238;49.082;9.102;2023-11-22T11:08:14;3.50;99.90
27890;DHT22;15238;49.082;9.102;2023-11-22T11:10:20;3.50;99.90
27890;DHT22;15238;49.082;9.102;2023-11-22T11:12:21;3.60;99.90
27890;DHT22;15238;49.082;9.102;2023-11-22T11:14:22;3.60;99.90
27890;DHT22;15238;49.082;9.102;2023-11-22T11:16:24;3.70;99.90
27890;DHT22;15238;49.082;9.102;2023-11-22T11:18:25;3.80;99.90
27890;DHT22;15238;49.082;9.102;2023-11-22T11:20:49;3.80;99.90
27890;DHT22;15238;49.082;9.102;2023-11-22T11:22:50;3.70;99.90
27890;DHT22;15238;49.082;9.102;2023-11-22T11:25:00;3.80;99.90
27890;DHT22;15238;49.082;9.102;2023-11-22T11:27:03;3.80;99.90
27890;DHT22;15238;49.082;9.102;2023-11-22T11:29:04;3.80;99.90
27890;DHT22;15238;49.082;9.102;2023-11-22T11:31:04;3.90;99.90
27890;DHT22;15238;49.082;9.102;2023-11-22T11:33:06;3.90;99.90
27890;DHT22;15238;49.082;9.102;2023-11-22T11:35:07;3.90;99.90
27890;DHT22;15238;49.082;9.102;2023-11-22T11:37:11;3.90;99.90
27890;DHT22;15238;49.082;9.102;2023-11-22T11:39:14;3.70;99.90
27890;DHT22;15238;49.082;9.102;2023-11-22T11:41:15;3.70;99.90
27890;DHT22;15238;49.082;9.102;2023-11-22T11:43:20;3.70;99.90
27890;DHT22;15238;49.082;9.102;2023-11-22T11:45:21;3.70;99.90
27890;DHT22;15238;49.082;9.102;2023-11-22T11:47:21;3.70;99.90
27890;DHT22;15238;49.082;9.102;2023-11-22T11:49:22;3.60;99.90
27890;DHT22;15238;49.082;9.102;2023-11-22T11:51:24;3.60;99.90
27890;DHT22;15238;49.082;9.102;2023-11-22T11:53:26;3.70;99.90
27890;DHT22;15238;49.082;9.102;2023-11-22T11:55:27;3.70;99.90
27890;DHT22;15238;49.082;9.102;2023-11-22T11:57:31;3.80;99.90
27890;DHT22;15238;49.082;9.102;2023-11-22T11:59:33;3.80;99.90
27890;DHT22;15238;49.082;9.102;2023-11-22T12:01:35;3.90;99.90
27890;DHT22;15238;49.082;9.102;2023-11-22T12:03:36;3.90;99.90
27890;DHT22;15238;49.082;9.102;2023-11-22T12:05:37;3.80;99.90
27890;DHT22;15238;49.082;9.102;2023-11-22T12:07:38;3.90;99.90
27890;DHT22;15238;49.082;9.102;2023-11-22T12:09:39;3.90;99.90
27890;DHT22;15238;49.082;9.102;2023-11-22T12:11:39;4.00;99.90
27890;DHT22;15238;49.082;9.102;2023-11-22T12:13:40;4.00;99.90
27890;DHT22;15238;49.082;9.102;2023-11-22T12:15:51;4.00;99.90
27890;DHT22;15238;49.082;9.102;2023-11-22T12:17:53;3.90;99.90
27890;DHT22;15238;49.082;9.102;2023-11-22T12:20:16;3.90;99.90
27890;DHT22;15238;49.082;9.102;2023-11-22T12:22:18;4.00;99.90
27890;DHT22;15238;49.082;9.102;2023-11-22T12:24:19;4.00;99.90
27890;DHT22;15238;49.082;9.102;2023-11-22T12:26:20;3.90;99.90
27890;DHT22;15238;49.082;9.102;2023-11-22T12:28:26;3.90;99.90
27890;DHT22;15238;49.082;9.102;2023-11-22T12:30:35;3.90;99.90
27890;DHT22;15238;49.082;9.102;2023-11-22T12:32:38;4.00;99.90
27890;DHT22;15238;49.082;9.102;2023-11-22T12:34:40;4.00;99.90
27890;DHT22;15238;49.082;9.102;2023-11-22T12:36:41;4.00;99.90
27890;DHT22;15238;49.082;9.102;2023-11-22T12:38:42;4.10;99.90
27890;DHT22;15238;49.082;9.102;2023-11-22T12:40:45;4.10;99.90
27890;DHT22;15238;49.082;9.102;2023-11-22T12:42:50;3.90;99.90
27890;DHT22;15238;49.082;9.102;2023-11-22T12:44:51;4.00;99.90
27890;DHT22;15238;49.082;9.102;2023-11-22T12:46:54;4.00;99.90
27890;DHT22;15238;49.082;9.102;2023-11-22T12:49:06;4.00;99.90
27890;DHT22;15238;49.082;9.102;2023-11-22T12:51:15;3.90;99.90
27890;DHT22;15238;49.082;9.102;2023-11-22T12:53:16;3.90;99.90
27890;DHT22;15238;49.082;9.102;2023-11-22T12:55:17;4.10;99.90
27890;DHT22;15238;49.082;9.102;2023-11-22T12:57:17;4.20;99.90
27890;DHT22;15238;49.082;9.102;2023-11-22T12:59:18;4.20;99.90